Time;durP1;ratioP1;P1;durP2;ratioP2;P2;SDS_P1;SDS_P2;PMS_P1;PMS_P2;Temp;Humidity;BMP_temperature;BMP_pressure;BME280_temperature;BME280_humidity;BME280_pressure;Samples;Min_cycle;Max_cycle;Signal;HPM_P1;HPM_P2
2024/02/29 00:02:01;;;;;;;0.70;0.70;;;3.50;99.90;;;;;;5092538;28;20677;-74
2024/02/29 00:04:28;;;;;;;0.60;0.60;;;3.50;99.90;;;;;;5092684;28;20214;-76
2024/02/29 00:06:57;;;;;;;0.60;0.60;;;3.50;99.90;;;;;;5092594;28;20284;-75
2024/02/29 00:09:23;;;;;;;0.60;0.60;;;3.60;99.90;;;;;;5092501;28;20200;-76
2024/02/29 00:14:46;;;;;;;0.70;0.70;;;3.50;99.90;;;;;;5089553;28;20296;-71
2024/02/29 00:17:12;;;;;;;0.60;0.60;;;3.60;99.90;;;;;;5092659;28;20286;-71
2024/02/29 00:19:46;;;;;;;0.70;0.70;;;3.50;99.90;;;;;;5074154;28;20629;-70
2024/02/29 00:22:12;;;;;;;1.08;0.90;;;3.60;99.90;;;;;;5092481;28;20199;-70
2024/02/29 00:24:38;;;;;;;0.60;0.60;;;3.60;99.90;;;;;;5092393;28;21208;-70
2024/02/29 00:27:03;;;;;;;0.60;0.60;;;3.60;99.90;;;;;;5092252;28;20200;-71
2024/02/29 00:29:31;;;;;;;0.82;0.82;;;3.60;99.90;;;;;;5073828;28;20204;-71
2024/02/29 00:32:02;;;;;;;0.70;0.70;;;3.60;99.90;;;;;;5092386;28;20283;-70
2024/02/29 00:34:33;;;;;;;0.60;0.60;;;3.60;99.90;;;;;;5092304;28;20544;-71
2024/02/29 00:37:07;;;;;;;1.48;1.30;;;3.60;99.90;;;;;;5092327;28;20207;-71
2024/02/29 00:39:38;;;;;;;0.50;0.50;;;3.60;99.90;;;;;;5092247;28;20597;-71
2024/02/29 00:42:04;;;;;;;0.75;0.75;;;3.60;99.90;;;;;;5092234;28;20192;-71
2024/02/29 00:44:30;;;;;;;0.70;0.70;;;3.60;99.90;;;;;;5107599;28;20215;-71
2024/02/29 00:46:55;;;;;;;4.72;2.53;;;3.50;99.90;;;;;;5074134;28;20206;-71
2024/02/29 00:49:24;;;;;;;1.10;1.10;;;3.60;99.90;;;;;;5074059;28;20203;-71
2024/02/29 00:51:49;;;;;;;0.60;0.60;;;3.60;99.90;;;;;;5096244;28;20562;-71
2024/02/29 00:54:15;;;;;;;0.68;0.68;;;3.60;99.90;;;;;;5078083;28;20204;-70
2024/02/29 00:56:41;;;;;;;0.45;0.45;;;3.70;99.90;;;;;;5095648;28;20257;-70
2024/02/29 00:59:06;;;;;;;0.63;0.63;;;3.70;99.90;;;;;;5096071;28;20688;-71
2024/02/29 01:01:32;;;;;;;0.60;0.60;;;3.70;99.90;;;;;;5095705;28;20196;-71
2024/02/29 01:03:58;;;;;;;0.60;0.60;;;3.70;99.90;;;;;;5095770;28;20238;-71
2024/02/29 01:06:23;;;;;;;0.60;0.60;;;3.70;99.90;;;;;;5095829;28;20705;-71
2024/02/29 01:08:49;;;;;;;0.70;0.70;;;3.70;99.90;;;;;;5077746;28;20554;-71
2024/02/29 01:11:15;;;;;;;0.70;0.70;;;3.70;99.90;;;;;;5095884;28;20565;-70
2024/02/29 01:13:41;;;;;;;1.13;1.13;;;3.70;99.90;;;;;;5077523;28;20283;-70
2024/02/29 01:16:07;;;;;;;0.68;0.68;;;3.80;99.90;;;;;;5095714;28;20192;-70
2024/02/29 01:18:33;;;;;;;0.60;0.60;;;3.70;99.90;;;;;;5077418;28;20219;-70
2024/02/29 01:20:58;;;;;;;0.60;0.60;;;3.80;99.90;;;;;;5095720;28;20200;-70
2024/02/29 01:23:24;;;;;;;0.70;0.70;;;3.80;99.90;;;;;;5095603;28;20269;-70
2024/02/29 01:25:50;;;;;;;0.60;0.60;;;3.80;99.90;;;;;;5095951;28;20184;-72
2024/02/29 01:28:16;;;;;;;0.47;0.47;;;3.80;99.90;;;;;;5095716;28;20276;-72
2024/02/29 01:30:42;;;;;;;0.68;0.68;;;3.80;99.90;;;;;;5095513;28;20747;-72
2024/02/29 01:33:07;;;;;;;0.60;0.60;;;3.90;99.90;;;;;;5077418;28;20200;-72
2024/02/29 01:35:33;;;;;;;0.80;0.80;;;3.90;99.90;;;;;;5095244;28;20188;-72
2024/02/29 01:37:59;;;;;;;1.10;1.10;;;3.90;99.90;;;;;;5095465;28;20207;-72
2024/02/29 01:40:24;;;;;;;0.70;0.70;;;3.90;99.90;;;;;;5080035;28;20200;-72
2024/02/29 01:42:50;;;;;;;0.60;0.60;;;3.90;99.90;;;;;;5075082;28;20243;-72
2024/02/29 01:45:17;;;;;;;0.60;0.60;;;4.00;99.90;;;;;;5075063;28;20192;-72
2024/02/29 01:47:43;;;;;;;0.60;0.60;;;4.00;99.90;;;;;;5074949;28;20627;-72
2024/02/29 01:50:10;;;;;;;0.60;0.60;;;4.00;99.90;;;;;;5074873;28;20193;-72
2024/02/29 01:52:42;;;;;;;0.60;0.60;;;4.00;99.90;;;;;;5056736;28;20671;-72
2024/02/29 01:55:10;;;;;;;0.65;0.65;;;4.00;99.90;;;;;;5074866;28;20563;-72
2024/02/29 01:57:36;;;;;;;2.15;1.73;;;4.00;99.90;;;;;;5074186;28;20221;-72
2024/02/29 02:00:03;;;;;;;0.60;0.60;;;4.00;99.90;;;;;;5090260;28;20683;-73
2024/02/29 02:02:29;;;;;;;0.85;0.85;;;4.00;99.90;;;;;;5055765;28;20683;-73
2024/02/29 02:04:55;;;;;;;0.45;0.45;;;3.90;99.90;;;;;;5074147;28;20189;-72
2024/02/29 02:07:21;;;;;;;0.70;0.70;;;4.00;99.90;;;;;;5074433;28;20664;-72
2024/02/29 02:09:47;;;;;;;0.60;0.60;;;4.00;99.90;;;;;;5074663;28;20197;-72
2024/02/29 02:12:13;;;;;;;0.68;0.68;;;4.00;99.90;;;;;;5074296;28;20250;-73
2024/02/29 02:14:39;;;;;;;0.52;0.52;;;4.00;99.90;;;;;;5074381;28;20197;-71
2024/02/29 02:17:06;;;;;;;0.90;0.90;;;4.00;99.90;;;;;;5074368;28;20262;-72
2024/02/29 02:19:32;;;;;;;0.77;0.77;;;4.00;99.90;;;;;;5073551;28;20205;-72
2024/02/29 02:21:58;;;;;;;0.75;0.75;;;4.00;99.90;;;;;;5089963;28;20200;-72
2024/02/29 02:24:24;;;;;;;0.60;0.60;;;4.00;99.90;;;;;;5074149;28;20181;-72
2024/02/29 02:26:50;;;;;;;1.10;1.08;;;4.00;99.90;;;;;;5074167;28;20233;-72
2024/02/29 02:29:16;;;;;;;0.77;0.77;;;3.90;99.90;;;;;;5073695;28;20228;-72
2024/02/29 02:31:41;;;;;;;0.70;0.70;;;3.90;99.90;;;;;;5073662;28;20197;-72
2024/02/29 02:34:07;;;;;;;0.60;0.60;;;3.90;99.90;;;;;;5073970;28;20203;-74
2024/02/29 02:36:33;;;;;;;0.60;0.60;;;4.00;99.90;;;;;;5070093;28;20196;-74
2024/02/29 02:38:58;;;;;;;0.60;0.60;;;3.90;99.90;;;;;;5075680;28;20197;-74
2024/02/29 02:41:24;;;;;;;0.60;0.60;;;4.00;99.90;;;;;;5075733;28;20192;-74
2024/02/29 02:43:50;;;;;;;0.60;0.60;;;3.90;99.90;;;;;;5075938;28;20199;-74
2024/02/29 02:46:17;;;;;;;1.77;1.17;;;3.90;99.90;;;;;;5076020;28;20192;-75
2024/02/29 02:48:43;;;;;;;8.15;2.78;;;3.90;99.90;;;;;;5094214;28;20191;-74
2024/02/29 02:51:08;;;;;;;0.80;0.80;;;3.90;99.90;;;;;;5093100;28;20192;-74
2024/02/29 02:53:34;;;;;;;0.90;0.90;;;3.80;99.90;;;;;;5092930;28;20199;-74
2024/02/29 02:56:00;;;;;;;0.90;0.85;;;3.80;99.90;;;;;;5093169;28;20200;-74
2024/02/29 02:58:25;;;;;;;0.60;0.60;;;3.80;99.90;;;;;;5092878;28;20208;-74
2024/02/29 03:00:51;;;;;;;0.93;0.93;;;3.70;99.90;;;;;;5093282;28;20531;-74
2024/02/29 03:03:17;;;;;;;0.70;0.70;;;3.80;99.90;;;;;;5074835;28;20192;-74
2024/02/29 03:05:42;;;;;;;0.70;0.70;;;3.80;99.90;;;;;;5074985;28;20200;-74
2024/02/29 03:08:08;;;;;;;0.60;0.60;;;3.70;99.90;;;;;;5093562;28;20363;-74
2024/02/29 03:10:34;;;;;;;0.50;0.50;;;3.70;99.90;;;;;;5093433;28;20199;-75
2024/02/29 03:13:00;;;;;;;0.60;0.60;;;3.70;99.90;;;;;;5092974;28;20196;-75
2024/02/29 03:15:25;;;;;;;0.57;0.57;;;3.60;99.90;;;;;;5074982;28;20196;-74
2024/02/29 03:17:55;;;;;;;0.50;0.50;;;3.60;99.90;;;;;;5093698;28;20212;-74
2024/02/29 03:20:24;;;;;;;0.52;0.52;;;3.60;99.90;;;;;;5109024;28;20656;-75
2024/02/29 03:22:49;;;;;;;0.60;0.60;;;3.60;99.90;;;;;;5092949;28;20188;-74
2024/02/29 03:25:16;;;;;;;0.70;0.70;;;3.60;99.90;;;;;;5092948;28;20196;-74
2024/02/29 03:27:42;;;;;;;0.60;0.60;;;3.70;99.90;;;;;;5074100;28;20201;-75
2024/02/29 03:30:08;;;;;;;0.63;0.63;;;3.60;99.90;;;;;;5075042;28;20207;-76
2024/02/29 03:32:34;;;;;;;0.60;0.60;;;3.60;99.90;;;;;;5091339;28;20199;-75
2024/02/29 03:35:02;;;;;;;0.70;0.70;;;3.60;99.90;;;;;;5075051;28;20204;-75
2024/02/29 03:37:27;;;;;;;3.85;3.38;;;3.70;99.90;;;;;;5092834;28;20195;-74
2024/02/29 03:39:53;;;;;;;0.60;0.60;;;3.70;99.90;;;;;;5092827;28;20190;-74
2024/02/29 03:42:18;;;;;;;0.80;0.80;;;3.70;99.90;;;;;;5108663;28;20204;-74
2024/02/29 03:44:45;;;;;;;1.15;1.05;;;3.70;99.90;;;;;;5093234;28;20199;-75
2024/02/29 03:47:11;;;;;;;0.90;0.90;;;3.70;99.90;;;;;;5074684;28;20203;-75
2024/02/29 03:49:37;;;;;;;0.60;0.60;;;3.70;99.90;;;;;;5092806;28;20755;-75
2024/02/29 03:52:02;;;;;;;8.77;2.78;;;3.70;99.90;;;;;;5108646;28;20257;-75
2024/02/29 03:54:28;;;;;;;1.25;1.17;;;3.70;99.90;;;;;;5074506;28;20232;-76
2024/02/29 03:56:54;;;;;;;0.60;0.60;;;3.70;99.90;;;;;;5092299;28;20220;-74
2024/02/29 03:59:20;;;;;;;0.60;0.60;;;3.70;99.90;;;;;;5074796;28;20651;-74
2024/02/29 04:01:49;;;;;;;0.60;0.60;;;3.70;99.90;;;;;;5083064;28;20199;-74
2024/02/29 04:04:17;;;;;;;0.90;0.90;;;3.70;99.90;;;;;;5092029;28;20211;-75
2024/02/29 04:06:42;;;;;;;0.52;0.52;;;3.70;99.90;;;;;;5092486;28;20187;-74
2024/02/29 04:09:09;;;;;;;0.55;0.55;;;3.80;99.90;;;;;;5092817;28;20196;-74
2024/02/29 04:11:36;;;;;;;0.90;0.90;;;3.80;99.90;;;;;;5092587;28;20216;-75
2024/02/29 04:14:03;;;;;;;0.60;0.60;;;3.80;99.90;;;;;;5092638;28;20540;-75
2024/02/29 04:16:35;;;;;;;0.57;0.57;;;3.80;99.90;;;;;;5074207;28;20196;-75
2024/02/29 04:19:02;;;;;;;0.82;0.82;;;3.70;99.90;;;;;;5092602;28;20196;-75
2024/02/29 04:21:27;;;;;;;0.68;0.68;;;3.70;99.90;;;;;;5092422;28;20196;-75
2024/02/29 04:23:53;;;;;;;1.13;0.93;;;3.70;99.90;;;;;;5092981;28;20196;-76
2024/02/29 04:26:19;;;;;;;0.70;0.70;;;3.70;99.90;;;;;;5096110;28;20191;-75
2024/02/29 04:28:45;;;;;;;0.63;0.63;;;3.70;99.90;;;;;;5075323;28;20206;-76
2024/02/29 04:31:10;;;;;;;0.60;0.60;;;3.70;99.90;;;;;;5096752;28;20188;-75
2024/02/29 04:33:36;;;;;;;0.60;0.60;;;3.70;99.90;;;;;;5096456;28;20256;-74
2024/02/29 04:36:02;;;;;;;0.80;0.80;;;3.60;99.90;;;;;;5096649;28;20354;-75
2024/02/29 04:38:27;;;;;;;1.35;1.25;;;3.60;99.90;;;;;;5096422;28;20215;-75
2024/02/29 04:40:54;;;;;;;0.80;0.80;;;3.70;99.90;;;;;;5096566;28;20189;-74
2024/02/29 04:43:20;;;;;;;5.90;1.25;;;3.70;99.90;;;;;;5096354;28;20191;-75
2024/02/29 04:45:46;;;;;;;3.75;2.88;;;3.70;99.90;;;;;;5096444;28;20196;-74
2024/02/29 04:48:12;;;;;;;0.50;0.50;;;3.70;99.90;;;;;;5096480;28;20192;-75
2024/02/29 04:50:38;;;;;;;0.60;0.60;;;3.80;99.90;;;;;;5096246;28;20208;-74
2024/02/29 04:53:03;;;;;;;0.88;0.88;;;3.70;99.90;;;;;;5078134;28;20200;-74
2024/02/29 04:55:30;;;;;;;0.70;0.70;;;3.70;99.90;;;;;;5096094;28;20537;-72
2024/02/29 04:57:55;;;;;;;0.80;0.80;;;3.70;99.90;;;;;;5077774;28;20310;-73
2024/02/29 05:00:21;;;;;;;0.77;0.77;;;3.70;99.90;;;;;;5094359;28;20632;-72
2024/02/29 05:02:47;;;;;;;0.60;0.60;;;3.70;99.90;;;;;;5096073;28;20195;-73
2024/02/29 05:05:13;;;;;;;0.70;0.70;;;3.70;99.90;;;;;;5094816;28;20196;-73
2024/02/29 05:07:39;;;;;;;0.63;0.63;;;3.70;99.90;;;;;;5095913;28;20571;-73
2024/02/29 05:10:07;;;;;;;1.42;1.25;;;3.80;99.90;;;;;;5094769;28;20218;-72
2024/02/29 05:12:33;;;;;;;0.70;0.70;;;3.80;99.90;;;;;;5095875;28;20199;-73
2024/02/29 05:14:59;;;;;;;0.60;0.60;;;3.80;99.90;;;;;;5095885;28;20719;-72
2024/02/29 05:17:25;;;;;;;2.25;1.60;;;3.80;99.90;;;;;;5116201;28;20282;-71
2024/02/29 05:19:56;;;;;;;0.60;0.60;;;3.80;99.90;;;;;;5116185;28;20202;-72
2024/02/29 05:22:22;;;;;;;0.63;0.63;;;3.80;99.90;;;;;;5116111;28;20187;-73
2024/02/29 05:24:47;;;;;;;0.60;0.60;;;3.90;99.90;;;;;;5104738;28;20192;-73
2024/02/29 05:27:13;;;;;;;0.70;0.70;;;3.90;99.90;;;;;;5095769;28;20648;-73
2024/02/29 05:29:39;;;;;;;1.92;1.10;;;3.80;99.90;;;;;;5095538;28;20223;-73
2024/02/29 05:32:05;;;;;;;0.90;0.90;;;3.90;99.90;;;;;;5077446;28;20581;-73
2024/02/29 05:34:31;;;;;;;1.48;1.38;;;3.90;99.90;;;;;;5111204;28;20198;-73
2024/02/29 05:36:56;;;;;;;0.60;0.60;;;3.90;99.90;;;;;;5094352;28;20208;-73
2024/02/29 05:39:22;;;;;;;0.65;0.65;;;3.80;99.90;;;;;;5111138;28;20202;-74
2024/02/29 05:41:48;;;;;;;0.70;0.70;;;3.80;99.90;;;;;;5111709;28;20280;-72
2024/02/29 05:44:14;;;;;;;0.70;0.70;;;3.90;99.90;;;;;;5097452;28;20197;-72
2024/02/29 05:46:39;;;;;;;0.90;0.90;;;3.90;99.90;;;;;;5097283;28;20644;-73
2024/02/29 05:49:05;;;;;;;1.33;1.23;;;3.80;99.90;;;;;;5115701;28;20184;-74
2024/02/29 05:51:31;;;;;;;12.10;3.90;;;3.90;99.90;;;;;;5115531;28;20222;-73
2024/02/29 05:53:56;;;;;;;0.80;0.80;;;3.90;99.90;;;;;;5115571;28;20271;-71
2024/02/29 05:56:22;;;;;;;0.60;0.60;;;3.90;99.90;;;;;;5115287;28;20215;-73
2024/02/29 05:58:47;;;;;;;0.63;0.63;;;3.90;99.90;;;;;;5115514;28;20203;-71
2024/02/29 06:01:13;;;;;;;0.60;0.60;;;3.90;99.90;;;;;;5097293;28;20278;-71
2024/02/29 06:03:39;;;;;;;0.50;0.50;;;3.90;99.90;;;;;;5097067;28;20203;-73
2024/02/29 06:06:05;;;;;;;0.80;0.80;;;3.80;99.90;;;;;;5115392;28;20191;-69
2024/02/29 06:08:30;;;;;;;0.60;0.60;;;3.80;99.90;;;;;;5115196;28;20194;-68
2024/02/29 06:10:56;;;;;;;0.70;0.70;;;3.80;99.90;;;;;;5096958;28;20248;-69
2024/02/29 06:13:22;;;;;;;0.70;0.70;;;3.70;99.90;;;;;;5096681;28;20298;-67
2024/02/29 06:15:48;;;;;;;0.60;0.60;;;3.70;99.90;;;;;;5115162;28;20229;-67
2024/02/29 06:18:13;;;;;;;0.60;0.60;;;3.70;99.90;;;;;;5115353;28;20212;-68
2024/02/29 06:20:39;;;;;;;0.57;0.57;;;3.70;99.90;;;;;;5106462;28;20207;-68
2024/02/29 06:23:05;;;;;;;0.63;0.63;;;3.70;99.90;;;;;;5110211;28;20192;-67
2024/02/29 06:25:31;;;;;;;0.63;0.63;;;3.70;99.90;;;;;;5094391;28;20203;-69
2024/02/29 06:27:57;;;;;;;0.60;0.60;;;3.70;99.90;;;;;;5076285;28;20199;-70
2024/02/29 06:30:31;;;;;;;0.60;0.60;;;3.60;99.90;;;;;;5076146;28;20215;-68
2024/02/29 06:33:00;;;;;;;0.80;0.80;;;3.60;99.90;;;;;;5094415;28;20587;-69
2024/02/29 06:35:26;;;;;;;0.75;0.75;;;3.70;99.90;;;;;;5109840;28;20196;-68
2024/02/29 06:37:52;;;;;;;0.80;0.80;;;3.70;99.90;;;;;;5094288;28;20204;-68
2024/02/29 06:40:21;;;;;;;0.63;0.63;;;3.70;99.90;;;;;;5113826;28;20700;-67
2024/02/29 06:42:47;;;;;;;0.60;0.60;;;3.70;99.90;;;;;;5096258;28;20620;-67
2024/02/29 06:45:13;;;;;;;0.80;0.80;;;3.70;99.90;;;;;;5130272;27;20195;-67
2024/02/29 06:47:40;;;;;;;0.70;0.70;;;3.70;99.90;;;;;;5095872;28;20346;-67
2024/02/29 06:50:06;;;;;;;0.65;0.65;;;3.70;99.90;;;;;;5114432;28;20195;-68
2024/02/29 06:52:32;;;;;;;0.60;0.60;;;3.60;99.90;;;;;;5114205;28;20191;-67
2024/02/29 06:54:58;;;;;;;0.70;0.70;;;3.60;99.90;;;;;;5114288;28;20201;-69
2024/02/29 06:57:23;;;;;;;0.80;0.80;;;3.60;99.90;;;;;;5113832;28;20223;-68
2024/02/29 06:59:49;;;;;;;0.80;0.80;;;3.60;99.90;;;;;;5114546;28;20195;-68
2024/02/29 07:02:15;;;;;;;0.90;0.90;;;3.60;99.90;;;;;;5095819;28;20199;-68
2024/02/29 07:04:40;;;;;;;0.70;0.70;;;3.70;99.90;;;;;;5095717;28;20196;-68
2024/02/29 07:07:09;;;;;;;0.90;0.90;;;3.70;99.90;;;;;;5114060;28;20562;-68
2024/02/29 07:09:34;;;;;;;1.02;1.02;;;3.70;99.90;;;;;;5129763;27;20195;-68
2024/02/29 07:12:00;;;;;;;1.55;1.45;;;3.70;99.90;;;;;;5095796;28;20218;-68
2024/02/29 07:14:26;;;;;;;0.60;0.60;;;3.70;99.90;;;;;;5095673;28;20195;-68
2024/02/29 07:16:51;;;;;;;0.60;0.60;;;3.70;99.90;;;;;;5106215;28;20680;-69
2024/02/29 07:19:17;;;;;;;0.70;0.70;;;3.80;99.90;;;;;;5093783;28;20196;-67
2024/02/29 07:21:43;;;;;;;0.70;0.70;;;3.80;99.90;;;;;;5093312;28;20184;-67
2024/02/29 07:24:08;;;;;;;0.60;0.60;;;3.80;99.90;;;;;;5093407;28;20281;-67
2024/02/29 07:26:43;;;;;;;0.80;0.80;;;3.90;99.90;;;;;;5075000;28;20200;-67
2024/02/29 07:29:09;;;;;;;0.70;0.70;;;4.00;99.90;;;;;;5093368;28;20675;-68
2024/02/29 07:31:36;;;;;;;0.73;0.73;;;3.90;99.90;;;;;;5093149;28;20271;-67
2024/02/29 07:34:02;;;;;;;1.30;1.25;;;4.00;99.90;;;;;;5100046;28;20191;-68
2024/02/29 07:36:28;;;;;;;1.00;1.00;;;4.00;99.90;;;;;;5113318;28;20199;-68
2024/02/29 07:38:53;;;;;;;0.65;0.65;;;4.00;99.90;;;;;;5111721;28;20214;-68
2024/02/29 07:41:20;;;;;;;0.50;0.50;;;4.00;99.90;;;;;;5095150;28;20202;-69
2024/02/29 07:43:47;;;;;;;0.75;0.75;;;4.00;99.90;;;;;;5113500;28;20257;-67
2024/02/29 07:46:12;;;;;;;0.70;0.70;;;4.00;99.90;;;;;;5113419;28;20274;-68
2024/02/29 07:48:38;;;;;;;0.70;0.70;;;4.10;99.90;;;;;;5113268;28;20316;-67
2024/02/29 07:51:04;;;;;;;0.80;0.80;;;4.10;99.90;;;;;;5094963;28;20588;-68
2024/02/29 07:53:29;;;;;;;0.63;0.63;;;4.10;99.90;;;;;;5113252;28;20195;-67
2024/02/29 07:55:55;;;;;;;0.60;0.60;;;4.10;99.90;;;;;;5094776;28;20291;-68
2024/02/29 07:58:21;;;;;;;0.50;0.50;;;4.10;99.90;;;;;;5094770;28;20269;-68
2024/02/29 08:00:47;;;;;;;0.68;0.68;;;4.10;99.90;;;;;;5112602;28;20272;-67
2024/02/29 08:03:12;;;;;;;0.70;0.70;;;4.10;99.90;;;;;;5113118;28;20240;-67
2024/02/29 08:05:38;;;;;;;0.70;0.70;;;4.10;99.90;;;;;;5112895;28;20215;-68
2024/02/29 08:08:04;;;;;;;1.48;1.38;;;4.20;99.90;;;;;;5113147;28;20223;-67
2024/02/29 08:10:30;;;;;;;0.63;0.63;;;4.10;99.90;;;;;;5094694;28;20297;-69
2024/02/29 08:12:55;;;;;;;0.70;0.70;;;4.20;99.90;;;;;;5107012;28;20200;-68
2024/02/29 08:15:21;;;;;;;0.80;0.80;;;4.10;99.90;;;;;;5092536;28;20660;-67
2024/02/29 08:17:47;;;;;;;0.80;0.80;;;4.10;99.90;;;;;;5108322;28;20218;-68
2024/02/29 08:20:12;;;;;;;0.70;0.70;;;4.10;99.90;;;;;;5100990;28;20204;-68
2024/02/29 08:22:39;;;;;;;0.70;0.70;;;4.10;99.90;;;;;;5112828;28;20206;-68
2024/02/29 08:25:05;;;;;;;0.70;0.70;;;4.10;99.90;;;;;;5113110;28;20187;-76
2024/02/29 08:27:31;;;;;;;0.70;0.70;;;4.10;99.90;;;;;;5112910;28;20188;-75
2024/02/29 08:29:58;;;;;;;0.50;0.50;;;4.10;99.90;;;;;;5094605;28;20210;-75
2024/02/29 08:32:23;;;;;;;0.93;0.93;;;4.00;99.90;;;;;;5112774;28;20244;-74
2024/02/29 08:34:49;;;;;;;0.73;0.73;;;4.00;99.90;;;;;;5112987;28;20655;-75
2024/02/29 08:37:15;;;;;;;0.80;0.80;;;4.00;99.90;;;;;;5113552;28;20238;-76
2024/02/29 08:39:41;;;;;;;0.75;0.75;;;4.00;99.90;;;;;;5112785;28;20620;-76
2024/02/29 08:42:09;;;;;;;0.60;0.60;;;4.00;99.90;;;;;;5112969;28;20274;-75
2024/02/29 08:44:35;;;;;;;0.70;0.70;;;4.00;99.90;;;;;;5112767;28;20184;-75
2024/02/29 08:47:03;;;;;;;0.95;0.95;;;4.00;99.90;;;;;;5112897;28;20203;-74
2024/02/29 08:49:29;;;;;;;1.23;1.13;;;4.00;99.90;;;;;;5112794;28;20210;-75
2024/02/29 08:51:55;;;;;;;0.80;0.80;;;4.00;99.90;;;;;;5094579;28;20654;-75
2024/02/29 08:54:20;;;;;;;0.73;0.73;;;4.00;99.90;;;;;;5112669;28;20195;-75
2024/02/29 08:56:46;;;;;;;0.60;0.60;;;4.00;99.90;;;;;;5112558;28;20227;-77
2024/02/29 08:59:12;;;;;;;0.70;0.70;;;4.00;99.90;;;;;;5094567;28;20214;-76
2024/02/29 09:01:38;;;;;;;0.57;0.57;;;4.00;99.90;;;;;;5112674;28;20659;-75
2024/02/29 09:04:03;;;;;;;0.70;0.70;;;4.00;99.90;;;;;;5112727;28;20203;-76
2024/02/29 09:06:29;;;;;;;0.70;0.70;;;4.00;99.90;;;;;;5094281;28;20192;-75
2024/02/29 09:08:55;;;;;;;0.60;0.60;;;4.00;99.90;;;;;;5108658;28;20192;-76
2024/02/29 09:11:20;;;;;;;0.60;0.60;;;4.00;99.90;;;;;;5109575;28;20200;-75
2024/02/29 09:13:46;;;;;;;0.70;0.70;;;4.00;99.90;;;;;;5096088;28;20200;-77
2024/02/29 09:16:12;;;;;;;1.15;1.08;;;4.00;99.90;;;;;;5096388;28;20200;-76
2024/02/29 09:18:39;;;;;;;0.60;0.60;;;4.00;99.90;;;;;;5077464;28;20227;-75
2024/02/29 09:21:05;;;;;;;0.73;0.73;;;4.00;99.90;;;;;;5111532;28;20196;-75
2024/02/29 09:23:31;;;;;;;0.85;0.85;;;4.10;99.90;;;;;;5095843;28;20663;-75
2024/02/29 09:25:56;;;;;;;0.90;0.90;;;4.10;99.90;;;;;;5095825;28;20192;-76
2024/02/29 09:28:22;;;;;;;0.70;0.70;;;4.10;99.90;;;;;;5091247;28;20436;-75
2024/02/29 09:30:48;;;;;;;0.63;0.63;;;4.10;99.90;;;;;;5116058;28;20194;-76
2024/02/29 09:33:13;;;;;;;0.73;0.73;;;4.10;99.90;;;;;;5097679;28;20203;-76
2024/02/29 09:35:39;;;;;;;0.60;0.60;;;4.10;99.90;;;;;;5115825;28;20223;-71
2024/02/29 09:38:05;;;;;;;0.80;0.80;;;4.10;99.90;;;;;;5115818;28;20212;-71
2024/02/29 09:40:31;;;;;;;0.63;0.63;;;4.20;99.90;;;;;;5115789;28;20654;-71
2024/02/29 09:42:56;;;;;;;0.60;0.60;;;4.10;99.90;;;;;;5115817;28;20195;-71
2024/02/29 09:45:23;;;;;;;0.65;0.65;;;4.10;99.90;;;;;;5115609;28;20195;-71
2024/02/29 09:47:50;;;;;;;0.93;0.93;;;4.10;99.90;;;;;;5115765;28;20199;-71
2024/02/29 09:50:16;;;;;;;0.50;0.50;;;4.10;99.90;;;;;;5115736;28;20702;-71
2024/02/29 09:52:42;;;;;;;0.70;0.70;;;4.10;99.90;;;;;;5115496;28;20180;-71
2024/02/29 09:55:18;;;;;;;0.60;0.60;;;4.10;99.90;;;;;;5115539;28;20282;-71
2024/02/29 09:57:45;;;;;;;0.88;0.73;;;4.10;99.90;;;;;;5115216;28;20215;-71
2024/02/29 10:00:11;;;;;;;0.60;0.60;;;4.10;99.90;;;;;;5097070;28;20682;-71
2024/02/29 10:02:43;;;;;;;0.55;0.55;;;4.10;99.90;;;;;;5096863;28;20200;-71
2024/02/29 10:05:10;;;;;;;0.60;0.60;;;4.10;99.90;;;;;;5114848;28;20188;-72
2024/02/29 10:07:47;;;;;;;0.70;0.70;;;4.00;99.90;;;;;;5115119;28;20647;-72
2024/02/29 10:10:14;;;;;;;1.25;1.15;;;4.00;99.90;;;;;;5115313;28;20694;-72
2024/02/29 10:12:40;;;;;;;0.77;0.77;;;4.00;99.90;;;;;;5115102;28;20195;-72
2024/02/29 10:15:10;;;;;;;0.60;0.60;;;4.10;99.90;;;;;;5115092;28;20200;-73
2024/02/29 10:17:37;;;;;;;1.10;1.00;;;4.10;99.90;;;;;;5115120;28;20723;-72
2024/02/29 10:20:11;;;;;;;1.17;1.15;;;4.10;99.90;;;;;;5114888;28;20607;-73
2024/02/29 10:22:40;;;;;;;0.70;0.70;;;4.10;99.90;;;;;;5114299;28;20245;-72
2024/02/29 10:25:13;;;;;;;0.60;0.60;;;4.20;99.90;;;;;;5114811;28;20275;-73
2024/02/29 10:27:39;;;;;;;0.60;0.60;;;4.20;99.90;;;;;;5114813;28;20670;-72
2024/02/29 10:30:16;;;;;;;0.60;0.60;;;4.20;99.90;;;;;;5096545;28;20230;-72
2024/02/29 10:32:45;;;;;;;0.60;0.60;;;4.20;99.90;;;;;;5114679;28;20553;-72
2024/02/29 10:35:21;;;;;;;0.60;0.60;;;4.20;99.90;;;;;;5114772;28;20719;-73
2024/02/29 10:37:55;;;;;;;0.68;0.68;;;4.30;99.90;;;;;;5114671;28;20659;-72
2024/02/29 10:40:23;;;;;;;0.70;0.70;;;4.30;99.90;;;;;;5096324;28;20219;-71
2024/02/29 10:42:56;;;;;;;0.60;0.60;;;4.30;99.90;;;;;;5096735;28;20279;-71
2024/02/29 10:45:25;;;;;;;0.80;0.80;;;4.30;99.90;;;;;;5130379;27;20195;-72
2024/02/29 10:47:56;;;;;;;0.70;0.70;;;4.30;99.90;;;;;;5130531;27;20247;-72
2024/02/29 10:50:27;;;;;;;0.73;0.73;;;4.30;99.90;;;;;;5096065;28;20666;-72
2024/02/29 10:53:17;;;;;;;0.70;0.70;;;4.20;99.90;;;;;;5130330;27;20200;-72
2024/02/29 10:56:44;;;;;;;0.63;0.63;;;4.20;99.90;;;;;;5078952;28;20667;-72
2024/02/29 10:59:12;;;;;;;0.70;0.70;;;4.20;99.90;;;;;;5039027;28;20216;-75
2024/02/29 11:01:38;;;;;;;0.60;0.60;;;4.20;99.90;;;;;;5093539;28;20712;-74
2024/02/29 11:04:05;;;;;;;0.60;0.60;;;4.20;99.90;;;;;;5093972;28;20196;-74
2024/02/29 11:06:44;;;;;;;0.70;0.70;;;4.20;99.90;;;;;;5093648;28;20202;-72
2024/02/29 11:09:12;;;;;;;0.68;0.68;;;4.20;99.90;;;;;;5093857;28;20462;-72
2024/02/29 11:11:38;;;;;;;1.00;1.00;;;4.20;99.90;;;;;;5126445;27;20231;-72
2024/02/29 11:14:09;;;;;;;0.60;0.60;;;4.20;99.90;;;;;;5092352;28;20562;-72
2024/02/29 11:16:42;;;;;;;0.75;0.75;;;4.20;99.90;;;;;;5093346;28;20656;-71
2024/02/29 11:19:11;;;;;;;0.80;0.80;;;4.30;99.90;;;;;;5092289;28;20212;-71
2024/02/29 11:21:38;;;;;;;0.60;0.60;;;4.30;99.90;;;;;;5093268;28;20211;-72
2024/02/29 11:24:05;;;;;;;0.50;0.50;;;4.30;99.90;;;;;;5093449;28;20192;-72
2024/02/29 11:26:35;;;;;;;0.60;0.60;;;4.30;99.90;;;;;;5094952;28;20207;-72
2024/02/29 11:29:18;;;;;;;1.08;1.00;;;4.30;99.90;;;;;;5113810;28;20195;-72
2024/02/29 11:31:48;;;;;;;1.40;1.30;;;4.40;99.90;;;;;;5113602;28;20566;-72
2024/02/29 11:34:18;;;;;;;0.60;0.60;;;4.40;99.90;;;;;;5112876;28;20191;-72
2024/02/29 11:36:45;;;;;;;0.40;0.40;;;4.40;99.90;;;;;;5113419;28;20294;-72
2024/02/29 11:39:11;;;;;;;0.70;0.70;;;4.40;99.90;;;;;;5129362;27;20226;-72
2024/02/29 11:41:38;;;;;;;0.80;0.80;;;4.40;99.90;;;;;;5113360;28;20222;-72
2024/02/29 11:44:04;;;;;;;0.80;0.80;;;4.50;99.90;;;;;;5094630;28;20195;-72
2024/02/29 11:46:29;;;;;;;0.60;0.60;;;4.50;99.90;;;;;;5112759;28;20559;-72
2024/02/29 11:48:56;;;;;;;0.50;0.50;;;4.50;99.90;;;;;;5113437;28;20686;-72
2024/02/29 11:51:23;;;;;;;0.70;0.70;;;4.50;99.90;;;;;;5112845;28;20185;-72
2024/02/29 11:53:49;;;;;;;0.90;0.90;;;4.50;99.90;;;;;;5129262;27;20199;-72
2024/02/29 11:56:15;;;;;;;0.80;0.80;;;4.50;99.90;;;;;;5113167;28;20203;-74
2024/02/29 11:58:41;;;;;;;1.13;1.02;;;4.60;99.90;;;;;;5082356;28;20207;-74
2024/02/29 12:01:07;;;;;;;0.70;0.70;;;4.60;99.90;;;;;;5074660;28;20664;-73
2024/02/29 12:03:33;;;;;;;0.93;0.93;;;4.60;99.90;;;;;;5092643;28;20392;-74
2024/02/29 12:05:59;;;;;;;2.47;1.42;;;4.70;99.90;;;;;;5074593;28;20282;-74
2024/02/29 12:08:27;;;;;;;0.77;0.77;;;4.70;99.90;;;;;;5074482;28;20588;-74
2024/02/29 12:11:00;;;;;;;0.60;0.60;;;4.70;99.90;;;;;;5092790;28;20199;-74
2024/02/29 12:13:27;;;;;;;0.70;0.70;;;4.70;99.90;;;;;;5092542;28;20273;-74
2024/02/29 12:15:54;;;;;;;0.50;0.50;;;4.70;99.90;;;;;;5095842;28;20194;-73
2024/02/29 12:18:20;;;;;;;0.50;0.50;;;4.70;99.90;;;;;;5112630;28;20249;-73
2024/02/29 12:20:48;;;;;;;0.60;0.60;;;4.60;99.90;;;;;;5094672;28;20234;-75
2024/02/29 12:23:14;;;;;;;0.98;0.98;;;4.60;99.90;;;;;;5113015;28;20239;-75
2024/02/29 12:25:43;;;;;;;4.93;1.90;;;4.60;99.90;;;;;;5094485;28;20195;-75
2024/02/29 12:28:10;;;;;;;0.70;0.70;;;4.60;99.90;;;;;;5112957;28;20206;-74
2024/02/29 12:30:35;;;;;;;0.70;0.70;;;4.60;99.90;;;;;;5112756;28;20211;-74
2024/02/29 12:33:02;;;;;;;0.60;0.60;;;4.60;99.90;;;;;;5094682;28;20238;-74
2024/02/29 12:35:32;;;;;;;0.70;0.70;;;4.60;99.90;;;;;;5112706;28;20192;-74
2024/02/29 12:37:59;;;;;;;1.10;1.00;;;4.60;99.90;;;;;;5128638;28;20222;-75
2024/02/29 12:40:29;;;;;;;0.68;0.68;;;4.60;99.90;;;;;;5112681;28;20663;-74
2024/02/29 12:42:56;;;;;;;0.68;0.68;;;4.70;99.90;;;;;;5112852;28;20549;-74
2024/02/29 12:45:22;;;;;;;0.80;0.80;;;4.60;99.90;;;;;;5112732;28;20215;-75
2024/02/29 12:47:47;;;;;;;1.20;1.15;;;4.70;99.90;;;;;;5098616;28;20227;-74
2024/02/29 12:50:15;;;;;;;0.77;0.77;;;4.60;99.90;;;;;;5116789;28;20196;-74
2024/02/29 12:52:41;;;;;;;0.70;0.70;;;4.60;99.90;;;;;;5116644;28;20280;-75
2024/02/29 12:55:07;;;;;;;1.13;1.05;;;4.60;99.90;;;;;;5116358;28;20260;-74
2024/02/29 12:57:33;;;;;;;0.52;0.52;;;4.60;99.90;;;;;;5116376;28;20215;-75
2024/02/29 12:59:58;;;;;;;0.80;0.80;;;4.60;99.90;;;;;;5116553;28;20540;-75